sensor_id;sensor_type;location;lat;lon;timestamp;P1;durP1;ratioP1;P2;durP2;ratioP2
52708;SDS011;38606;52.986;6.980;2023-04-15T00:00:37;14.10;;;5.28;;
52708;SDS011;38606;52.986;6.980;2023-04-15T00:03:03;10.25;;;5.30;;
52708;SDS011;38606;52.986;6.980;2023-04-15T00:05:31;10.63;;;5.80;;
52708;SDS011;38606;52.986;6.980;2023-04-15T00:07:57;12.45;;;5.63;;
52708;SDS011;38606;52.986;6.980;2023-04-15T00:10:26;12.40;;;5.65;;
52708;SDS011;38606;52.986;6.980;2023-04-15T00:12:52;11.02;;;5.55;;
52708;SDS011;38606;52.986;6.980;2023-04-15T00:15:18;14.93;;;5.45;;
52708;SDS011;38606;52.986;6.980;2023-04-15T00:17:44;10.80;;;5.75;;
52708;SDS011;38606;52.986;6.980;2023-04-15T00:20:11;12.07;;;5.93;;
52708;SDS011;38606;52.986;6.980;2023-04-15T00:22:40;12.93;;;5.70;;
52708;SDS011;38606;52.986;6.980;2023-04-15T00:25:05;12.18;;;5.57;;
52708;SDS011;38606;52.986;6.980;2023-04-15T00:27:31;13.40;;;5.75;;
52708;SDS011;38606;52.986;6.980;2023-04-15T00:29:57;12.15;;;5.80;;
52708;SDS011;38606;52.986;6.980;2023-04-15T00:32:22;10.52;;;5.35;;
52708;SDS011;38606;52.986;6.980;2023-04-15T00:34:48;11.68;;;5.80;;
52708;SDS011;38606;52.986;6.980;2023-04-15T00:37:14;11.15;;;5.57;;
52708;SDS011;38606;52.986;6.980;2023-04-15T00:39:40;12.48;;;5.95;;
52708;SDS011;38606;52.986;6.980;2023-04-15T00:42:06;11.45;;;5.50;;
52708;SDS011;38606;52.986;6.980;2023-04-15T00:44:32;12.60;;;6.30;;
52708;SDS011;38606;52.986;6.980;2023-04-15T00:46:59;12.40;;;6.20;;
52708;SDS011;38606;52.986;6.980;2023-04-15T00:49:25;12.65;;;6.07;;
52708;SDS011;38606;52.986;6.980;2023-04-15T00:51:53;14.15;;;6.22;;
52708;SDS011;38606;52.986;6.980;2023-04-15T00:54:19;13.32;;;6.22;;
52708;SDS011;38606;52.986;6.980;2023-04-15T00:56:46;14.10;;;6.22;;
52708;SDS011;38606;52.986;6.980;2023-04-15T00:59:12;12.32;;;6.43;;
52708;SDS011;38606;52.986;6.980;2023-04-15T01:01:38;15.65;;;6.45;;
52708;SDS011;38606;52.986;6.980;2023-04-15T01:04:04;11.45;;;6.78;;
52708;SDS011;38606;52.986;6.980;2023-04-15T01:06:31;13.65;;;6.35;;
52708;SDS011;38606;52.986;6.980;2023-04-15T01:08:57;13.18;;;6.70;;
52708;SDS011;38606;52.986;6.980;2023-04-15T01:11:23;12.00;;;6.65;;
52708;SDS011;38606;52.986;6.980;2023-04-15T01:13:49;12.40;;;6.97;;
52708;SDS011;38606;52.986;6.980;2023-04-15T01:16:17;14.02;;;6.65;;
52708;SDS011;38606;52.986;6.980;2023-04-15T01:18:43;14.55;;;7.15;;
52708;SDS011;38606;52.986;6.980;2023-04-15T01:21:09;13.85;;;7.70;;
52708;SDS011;38606;52.986;6.980;2023-04-15T01:23:36;12.60;;;7.60;;
52708;SDS011;38606;52.986;6.980;2023-04-15T01:26:03;14.80;;;7.28;;
52708;SDS011;38606;52.986;6.980;2023-04-15T01:28:29;15.45;;;7.10;;
52708;SDS011;38606;52.986;6.980;2023-04-15T01:31:08;11.57;;;6.88;;
52708;SDS011;38606;52.986;6.980;2023-04-15T01:33:36;13.63;;;7.35;;
52708;SDS011;38606;52.986;6.980;2023-04-15T01:36:03;10.73;;;7.05;;
52708;SDS011;38606;52.986;6.980;2023-04-15T01:38:31;12.57;;;7.40;;
52708;SDS011;38606;52.986;6.980;2023-04-15T01:40:57;11.27;;;7.10;;
52708;SDS011;38606;52.986;6.980;2023-04-15T01:43:24;13.23;;;7.75;;
52708;SDS011;38606;52.986;6.980;2023-04-15T01:45:50;10.25;;;6.85;;
52708;SDS011;38606;52.986;6.980;2023-04-15T01:48:16;16.08;;;6.75;;
52708;SDS011;38606;52.986;6.980;2023-04-15T01:50:42;12.85;;;6.78;;
52708;SDS011;38606;52.986;6.980;2023-04-15T01:53:08;11.85;;;7.20;;
52708;SDS011;38606;52.986;6.980;2023-04-15T01:55:34;12.82;;;7.28;;
52708;SDS011;38606;52.986;6.980;2023-04-15T01:57:59;11.30;;;7.20;;
52708;SDS011;38606;52.986;6.980;2023-04-15T02:00:25;11.35;;;7.40;;
52708;SDS011;38606;52.986;6.980;2023-04-15T02:02:51;13.65;;;7.20;;
52708;SDS011;38606;52.986;6.980;2023-04-15T02:05:17;16.10;;;7.68;;
52708;SDS011;38606;52.986;6.980;2023-04-15T02:07:44;13.50;;;7.30;;
52708;SDS011;38606;52.986;6.980;2023-04-15T02:10:10;11.93;;;6.95;;
52708;SDS011;38606;52.986;6.980;2023-04-15T02:12:37;11.15;;;6.78;;
52708;SDS011;38606;52.986;6.980;2023-04-15T02:15:04;13.98;;;7.45;;
52708;SDS011;38606;52.986;6.980;2023-04-15T02:17:33;13.65;;;7.35;;
52708;SDS011;38606;52.986;6.980;2023-04-15T02:19:59;10.40;;;7.53;;
52708;SDS011;38606;52.986;6.980;2023-04-15T02:22:25;13.38;;;8.18;;
52708;SDS011;38606;52.986;6.980;2023-04-15T02:24:51;12.90;;;7.80;;
52708;SDS011;38606;52.986;6.980;2023-04-15T02:27:17;12.60;;;7.47;;
52708;SDS011;38606;52.986;6.980;2023-04-15T02:29:43;15.13;;;7.88;;
52708;SDS011;38606;52.986;6.980;2023-04-15T02:32:10;12.20;;;7.55;;
52708;SDS011;38606;52.986;6.980;2023-04-15T02:34:36;11.35;;;7.18;;
52708;SDS011;38606;52.986;6.980;2023-04-15T02:37:05;11.48;;;7.50;;
52708;SDS011;38606;52.986;6.980;2023-04-15T02:39:32;12.98;;;7.38;;
52708;SDS011;38606;52.986;6.980;2023-04-15T02:41:58;12.40;;;8.02;;
52708;SDS011;38606;52.986;6.980;2023-04-15T02:44:25;14.88;;;8.15;;
52708;SDS011;38606;52.986;6.980;2023-04-15T02:46:51;13.05;;;7.63;;
52708;SDS011;38606;52.986;6.980;2023-04-15T02:49:22;13.23;;;7.82;;
52708;SDS011;38606;52.986;6.980;2023-04-15T02:51:48;12.73;;;7.22;;
52708;SDS011;38606;52.986;6.980;2023-04-15T02:54:20;11.43;;;8.10;;
52708;SDS011;38606;52.986;6.980;2023-04-15T02:56:50;11.48;;;7.18;;
52708;SDS011;38606;52.986;6.980;2023-04-15T02:59:19;13.40;;;7.40;;
52708;SDS011;38606;52.986;6.980;2023-04-15T03:01:45;15.50;;;7.45;;
52708;SDS011;38606;52.986;6.980;2023-04-15T03:04:11;11.52;;;8.40;;
52708;SDS011;38606;52.986;6.980;2023-04-15T03:06:37;12.00;;;7.68;;
52708;SDS011;38606;52.986;6.980;2023-04-15T03:09:03;13.05;;;8.27;;
52708;SDS011;38606;52.986;6.980;2023-04-15T03:11:29;12.73;;;7.97;;
52708;SDS011;38606;52.986;6.980;2023-04-15T03:13:55;11.65;;;8.20;;
52708;SDS011;38606;52.986;6.980;2023-04-15T03:16:22;11.05;;;7.57;;
52708;SDS011;38606;52.986;6.980;2023-04-15T03:18:48;16.05;;;7.78;;
52708;SDS011;38606;52.986;6.980;2023-04-15T03:21:14;15.35;;;8.50;;
52708;SDS011;38606;52.986;6.980;2023-04-15T03:23:40;10.90;;;7.88;;
52708;SDS011;38606;52.986;6.980;2023-04-15T03:26:05;12.55;;;8.38;;
52708;SDS011;38606;52.986;6.980;2023-04-15T03:28:31;14.77;;;8.77;;
52708;SDS011;38606;52.986;6.980;2023-04-15T03:30:57;12.45;;;8.18;;
52708;SDS011;38606;52.986;6.980;2023-04-15T03:33:23;13.48;;;9.02;;
52708;SDS011;38606;52.986;6.980;2023-04-15T03:35:49;16.08;;;9.40;;
52708;SDS011;38606;52.986;6.980;2023-04-15T03:38:16;17.45;;;9.20;;
52708;SDS011;38606;52.986;6.980;2023-04-15T03:40:42;14.77;;;9.13;;
52708;SDS011;38606;52.986;6.980;2023-04-15T03:43:08;16.38;;;10.05;;
52708;SDS011;38606;52.986;6.980;2023-04-15T03:45:34;16.02;;;10.25;;
52708;SDS011;38606;52.986;6.980;2023-04-15T03:47:59;14.32;;;10.15;;
52708;SDS011;38606;52.986;6.980;2023-04-15T03:50:25;18.33;;;10.50;;
52708;SDS011;38606;52.986;6.980;2023-04-15T03:52:51;17.00;;;9.93;;
52708;SDS011;38606;52.986;6.980;2023-04-15T03:55:17;15.52;;;10.07;;
52708;SDS011;38606;52.986;6.980;2023-04-15T03:57:44;18.75;;;10.65;;
52708;SDS011;38606;52.986;6.980;2023-04-15T04:00:10;16.90;;;10.57;;
52708;SDS011;38606;52.986;6.980;2023-04-15T04:02:36;15.43;;;10.07;;
52708;SDS011;38606;52.986;6.980;2023-04-15T04:05:02;16.05;;;10.13;;
52708;SDS011;38606;52.986;6.980;2023-04-15T04:07:28;18.63;;;11.25;;
52708;SDS011;38606;52.986;6.980;2023-04-15T04:09:55;18.90;;;11.45;;
52708;SDS011;38606;52.986;6.980;2023-04-15T04:12:21;19.73;;;12.10;;
52708;SDS011;38606;52.986;6.980;2023-04-15T04:14:47;21.25;;;12.57;;
52708;SDS011;38606;52.986;6.980;2023-04-15T04:17:13;24.92;;;12.82;;
52708;SDS011;38606;52.986;6.980;2023-04-15T04:19:38;19.80;;;12.73;;
52708;SDS011;38606;52.986;6.980;2023-04-15T04:22:04;21.60;;;13.52;;
52708;SDS011;38606;52.986;6.980;2023-04-15T04:24:30;22.55;;;13.18;;
52708;SDS011;38606;52.986;6.980;2023-04-15T04:26:56;22.88;;;13.73;;
52708;SDS011;38606;52.986;6.980;2023-04-15T04:29:22;25.63;;;15.38;;
52708;SDS011;38606;52.986;6.980;2023-04-15T04:31:48;26.90;;;16.30;;
52708;SDS011;38606;52.986;6.980;2023-04-15T04:34:14;28.23;;;16.63;;
52708;SDS011;38606;52.986;6.980;2023-04-15T04:36:40;24.88;;;14.70;;
52708;SDS011;38606;52.986;6.980;2023-04-15T04:39:05;28.30;;;16.50;;
52708;SDS011;38606;52.986;6.980;2023-04-15T04:41:32;26.95;;;16.40;;
52708;SDS011;38606;52.986;6.980;2023-04-15T04:43:57;26.10;;;15.98;;
52708;SDS011;38606;52.986;6.980;2023-04-15T04:46:23;27.83;;;17.33;;
52708;SDS011;38606;52.986;6.980;2023-04-15T04:48:49;27.33;;;15.88;;
52708;SDS011;38606;52.986;6.980;2023-04-15T04:51:15;30.48;;;16.35;;
52708;SDS011;38606;52.986;6.980;2023-04-15T04:53:41;29.02;;;17.50;;
52708;SDS011;38606;52.986;6.980;2023-04-15T04:56:07;32.63;;;17.48;;
52708;SDS011;38606;52.986;6.980;2023-04-15T04:58:33;29.52;;;18.10;;
52708;SDS011;38606;52.986;6.980;2023-04-15T05:00:59;27.05;;;16.77;;
52708;SDS011;38606;52.986;6.980;2023-04-15T05:03:24;32.28;;;17.75;;
52708;SDS011;38606;52.986;6.980;2023-04-15T05:05:51;31.33;;;17.63;;
52708;SDS011;38606;52.986;6.980;2023-04-15T05:08:17;30.23;;;17.35;;
52708;SDS011;38606;52.986;6.980;2023-04-15T05:10:43;26.88;;;16.85;;
52708;SDS011;38606;52.986;6.980;2023-04-15T05:13:08;29.88;;;18.00;;
52708;SDS011;38606;52.986;6.980;2023-04-15T05:15:34;29.95;;;16.63;;
52708;SDS011;38606;52.986;6.980;2023-04-15T05:18:01;30.20;;;17.80;;
52708;SDS011;38606;52.986;6.980;2023-04-15T05:20:27;32.38;;;18.50;;
52708;SDS011;38606;52.986;6.980;2023-04-15T05:22:53;33.67;;;18.27;;
52708;SDS011;38606;52.986;6.980;2023-04-15T05:25:19;30.02;;;19.17;;
52708;SDS011;38606;52.986;6.980;2023-04-15T05:27:45;28.50;;;17.50;;
52708;SDS011;38606;52.986;6.980;2023-04-15T05:30:11;36.30;;;19.52;;
52708;SDS011;38606;52.986;6.980;2023-04-15T05:32:37;30.60;;;18.35;;
52708;SDS011;38606;52.986;6.980;2023-04-15T05:35:02;29.90;;;17.92;;
52708;SDS011;38606;52.986;6.980;2023-04-15T05:37:29;29.55;;;17.65;;
52708;SDS011;38606;52.986;6.980;2023-04-15T05:39:54;33.80;;;19.15;;
52708;SDS011;38606;52.986;6.980;2023-04-15T05:42:20;27.50;;;17.40;;
52708;SDS011;38606;52.986;6.980;2023-04-15T05:44:46;29.92;;;17.55;;
52708;SDS011;38606;52.986;6.980;2023-04-15T05:47:12;27.42;;;16.52;;
52708;SDS011;38606;52.986;6.980;2023-04-15T05:49:37;27.67;;;17.08;;
52708;SDS011;38606;52.986;6.980;2023-04-15T05:52:03;28.60;;;16.52;;
52708;SDS011;38606;52.986;6.980;2023-04-15T05:54:29;27.25;;;16.60;;
52708;SDS011;38606;52.986;6.980;2023-04-15T05:56:55;28.83;;;16.83;;
52708;SDS011;38606;52.986;6.980;2023-04-15T05:59:22;28.70;;;16.20;;
52708;SDS011;38606;52.986;6.980;2023-04-15T06:01:48;30.35;;;16.23;;
52708;SDS011;38606;52.986;6.980;2023-04-15T06:04:16;27.98;;;16.75;;
52708;SDS011;38606;52.986;6.980;2023-04-15T06:06:41;27.20;;;16.17;;
52708;SDS011;38606;52.986;6.980;2023-04-15T06:09:07;25.52;;;15.02;;
52708;SDS011;38606;52.986;6.980;2023-04-15T06:11:33;28.75;;;16.40;;
52708;SDS011;38606;52.986;6.980;2023-04-15T06:13:59;25.90;;;15.82;;
52708;SDS011;38606;52.986;6.980;2023-04-15T06:16:24;28.77;;;15.85;;
52708;SDS011;38606;52.986;6.980;2023-04-15T06:18:51;27.83;;;15.95;;
52708;SDS011;38606;52.986;6.980;2023-04-15T06:21:17;25.63;;;15.30;;
52708;SDS011;38606;52.986;6.980;2023-04-15T06:23:43;24.98;;;15.15;;
52708;SDS011;38606;52.986;6.980;2023-04-15T06:26:08;28.40;;;15.35;;
52708;SDS011;38606;52.986;6.980;2023-04-15T06:28:34;26.63;;;15.48;;
52708;SDS011;38606;52.986;6.980;2023-04-15T06:31:00;27.48;;;15.68;;
52708;SDS011;38606;52.986;6.980;2023-04-15T06:33:26;22.90;;;14.88;;
52708;SDS011;38606;52.986;6.980;2023-04-15T06:35:52;26.35;;;14.88;;
52708;SDS011;38606;52.986;6.980;2023-04-15T06:38:17;25.25;;;15.95;;
52708;SDS011;38606;52.986;6.980;2023-04-15T06:40:43;20.58;;;12.57;;
52708;SDS011;38606;52.986;6.980;2023-04-15T06:43:09;22.25;;;12.85;;
52708;SDS011;38606;52.986;6.980;2023-04-15T06:45:34;20.80;;;11.77;;
52708;SDS011;38606;52.986;6.980;2023-04-15T06:48:00;17.48;;;10.30;;
52708;SDS011;38606;52.986;6.980;2023-04-15T06:50:26;14.95;;;9.40;;
52708;SDS011;38606;52.986;6.980;2023-04-15T06:52:54;15.43;;;9.00;;
52708;SDS011;38606;52.986;6.980;2023-04-15T06:55:21;15.27;;;9.13;;
52708;SDS011;38606;52.986;6.980;2023-04-15T06:57:46;14.63;;;8.90;;
52708;SDS011;38606;52.986;6.980;2023-04-15T07:00:12;14.75;;;8.68;;
52708;SDS011;38606;52.986;6.980;2023-04-15T07:02:39;13.95;;;8.63;;
52708;SDS011;38606;52.986;6.980;2023-04-15T07:05:05;13.13;;;8.32;;
52708;SDS011;38606;52.986;6.980;2023-04-15T07:07:31;11.80;;;7.55;;
52708;SDS011;38606;52.986;6.980;2023-04-15T07:09:57;12.35;;;8.32;;
52708;SDS011;38606;52.986;6.980;2023-04-15T07:12:23;13.15;;;8.02;;
52708;SDS011;38606;52.986;6.980;2023-04-15T07:14:49;10.75;;;7.03;;
52708;SDS011;38606;52.986;6.980;2023-04-15T07:17:14;12.15;;;7.93;;
52708;SDS011;38606;52.986;6.980;2023-04-15T07:19:40;10.48;;;7.53;;
52708;SDS011;38606;52.986;6.980;2023-04-15T07:22:06;13.38;;;7.53;;
52708;SDS011;38606;52.986;6.980;2023-04-15T07:24:32;12.88;;;8.38;;
52708;SDS011;38606;52.986;6.980;2023-04-15T07:26:57;13.07;;;7.38;;
52708;SDS011;38606;52.986;6.980;2023-04-15T07:29:24;10.55;;;7.28;;
52708;SDS011;38606;52.986;6.980;2023-04-15T07:31:51;11.93;;;7.00;;
52708;SDS011;38606;52.986;6.980;2023-04-15T07:34:17;11.30;;;7.00;;
52708;SDS011;38606;52.986;6.980;2023-04-15T07:36:43;12.15;;;6.88;;
52708;SDS011;38606;52.986;6.980;2023-04-15T07:39:10;15.80;;;7.47;;
52708;SDS011;38606;52.986;6.980;2023-04-15T07:41:36;10.75;;;6.47;;
52708;SDS011;38606;52.986;6.980;2023-04-15T07:44:02;12.43;;;7.03;;
52708;SDS011;38606;52.986;6.980;2023-04-15T07:46:28;13.35;;;6.25;;
52708;SDS011;38606;52.986;6.980;2023-04-15T07:48:53;11.52;;;7.13;;
52708;SDS011;38606;52.986;6.980;2023-04-15T07:51:19;12.80;;;7.47;;
52708;SDS011;38606;52.986;6.980;2023-04-15T07:53:48;10.57;;;7.13;;
52708;SDS011;38606;52.986;6.980;2023-04-15T07:56:14;10.15;;;6.50;;
52708;SDS011;38606;52.986;6.980;2023-04-15T07:58:40;12.52;;;6.30;;
52708;SDS011;38606;52.986;6.980;2023-04-15T08:01:06;10.27;;;5.28;;
52708;SDS011;38606;52.986;6.980;2023-04-15T08:03:32;9.60;;;4.82;;
52708;SDS011;38606;52.986;6.980;2023-04-15T08:05:58;7.05;;;4.72;;
52708;SDS011;38606;52.986;6.980;2023-04-15T08:08:24;6.30;;;4.50;;
52708;SDS011;38606;52.986;6.980;2023-04-15T08:10:50;7.00;;;4.97;;
52708;SDS011;38606;52.986;6.980;2023-04-15T08:13:16;8.05;;;5.05;;
52708;SDS011;38606;52.986;6.980;2023-04-15T08:15:42;6.85;;;4.55;;
52708;SDS011;38606;52.986;6.980;2023-04-15T08:18:08;6.82;;;4.88;;
52708;SDS011;38606;52.986;6.980;2023-04-15T08:20:34;11.77;;;5.10;;
52708;SDS011;38606;52.986;6.980;2023-04-15T08:22:59;7.32;;;4.65;;
52708;SDS011;38606;52.986;6.980;2023-04-15T08:25:26;5.95;;;4.00;;
52708;SDS011;38606;52.986;6.980;2023-04-15T08:27:54;6.10;;;4.38;;
52708;SDS011;38606;52.986;6.980;2023-04-15T08:30:20;8.68;;;4.80;;
52708;SDS011;38606;52.986;6.980;2023-04-15T08:32:45;6.70;;;4.65;;
52708;SDS011;38606;52.986;6.980;2023-04-15T08:35:11;9.77;;;4.35;;
52708;SDS011;38606;52.986;6.980;2023-04-15T08:37:38;9.90;;;4.13;;
52708;SDS011;38606;52.986;6.980;2023-04-15T08:40:03;6.13;;;3.70;;
52708;SDS011;38606;52.986;6.980;2023-04-15T08:42:30;5.40;;;3.65;;
52708;SDS011;38606;52.986;6.980;2023-04-15T08:45:00;26.00;;;6.18;;
52708;SDS011;38606;52.986;6.980;2023-04-15T08:47:29;7.50;;;3.83;;
52708;SDS011;38606;52.986;6.980;2023-04-15T08:49:58;6.60;;;3.42;;
52708;SDS011;38606;52.986;6.980;2023-04-15T08:52:29;5.97;;;3.65;;
52708;SDS011;38606;52.986;6.980;2023-04-15T08:54:57;5.00;;;3.28;;
52708;SDS011;38606;52.986;6.980;2023-04-15T08:57:27;7.20;;;4.13;;
52708;SDS011;38606;52.986;6.980;2023-04-15T08:59:56;6.80;;;3.72;;
52708;SDS011;38606;52.986;6.980;2023-04-15T09:02:23;5.03;;;3.67;;
52708;SDS011;38606;52.986;6.980;2023-04-15T09:04:52;8.73;;;3.35;;
52708;SDS011;38606;52.986;6.980;2023-04-15T09:07:18;7.07;;;3.70;;
52708;SDS011;38606;52.986;6.980;2023-04-15T09:09:44;6.97;;;3.20;;
52708;SDS011;38606;52.986;6.980;2023-04-15T09:12:10;8.43;;;3.80;;
52708;SDS011;38606;52.986;6.980;2023-04-15T09:14:37;3.63;;;2.90;;
52708;SDS011;38606;52.986;6.980;2023-04-15T09:17:05;5.65;;;3.08;;
52708;SDS011;38606;52.986;6.980;2023-04-15T09:19:34;4.72;;;2.78;;
52708;SDS011;38606;52.986;6.980;2023-04-15T09:22:00;11.43;;;3.38;;
52708;SDS011;38606;52.986;6.980;2023-04-15T09:24:33;7.07;;;3.00;;
52708;SDS011;38606;52.986;6.980;2023-04-15T09:27:01;7.03;;;2.70;;
52708;SDS011;38606;52.986;6.980;2023-04-15T09:29:27;7.60;;;3.22;;
52708;SDS011;38606;52.986;6.980;2023-04-15T09:31:53;6.40;;;2.95;;
52708;SDS011;38606;52.986;6.980;2023-04-15T09:34:19;4.97;;;2.72;;
52708;SDS011;38606;52.986;6.980;2023-04-15T09:39:21;5.25;;;2.53;;
52708;SDS011;38606;52.986;6.980;2023-04-15T09:41:48;12.52;;;3.53;;
52708;SDS011;38606;52.986;6.980;2023-04-15T09:44:29;5.88;;;2.50;;
52708;SDS011;38606;52.986;6.980;2023-04-15T09:46:55;5.90;;;2.55;;
52708;SDS011;38606;52.986;6.980;2023-04-15T09:49:21;13.65;;;3.60;;
52708;SDS011;38606;52.986;6.980;2023-04-15T09:51:47;6.68;;;2.90;;
52708;SDS011;38606;52.986;6.980;2023-04-15T09:54:17;4.47;;;2.40;;
52708;SDS011;38606;52.986;6.980;2023-04-15T09:56:45;6.32;;;2.40;;
52708;SDS011;38606;52.986;6.980;2023-04-15T09:59:11;5.72;;;2.33;;
52708;SDS011;38606;52.986;6.980;2023-04-15T10:01:37;4.90;;;2.40;;
52708;SDS011;38606;52.986;6.980;2023-04-15T10:04:05;6.38;;;2.38;;
52708;SDS011;38606;52.986;6.980;2023-04-15T10:06:31;6.22;;;2.38;;
52708;SDS011;38606;52.986;6.980;2023-04-15T10:08:58;7.30;;;2.40;;
52708;SDS011;38606;52.986;6.980;2023-04-15T10:11:28;6.45;;;2.63;;
52708;SDS011;38606;52.986;6.980;2023-04-15T10:13:56;11.77;;;3.30;;
52708;SDS011;38606;52.986;6.980;2023-04-15T10:16:21;7.78;;;2.63;;
52708;SDS011;38606;52.986;6.980;2023-04-15T10:18:54;10.75;;;2.70;;
52708;SDS011;38606;52.986;6.980;2023-04-15T10:21:20;63.42;;;8.43;;
52708;SDS011;38606;52.986;6.980;2023-04-15T10:23:47;6.13;;;2.45;;
52708;SDS011;38606;52.986;6.980;2023-04-15T10:26:13;8.40;;;3.05;;
52708;SDS011;38606;52.986;6.980;2023-04-15T10:28:41;8.52;;;3.28;;
52708;SDS011;38606;52.986;6.980;2023-04-15T10:31:07;5.85;;;2.83;;
52708;SDS011;38606;52.986;6.980;2023-04-15T10:33:35;10.05;;;3.10;;
52708;SDS011;38606;52.986;6.980;2023-04-15T10:36:02;7.53;;;2.85;;
52708;SDS011;38606;52.986;6.980;2023-04-15T10:38:33;4.78;;;2.50;;
52708;SDS011;38606;52.986;6.980;2023-04-15T10:43:44;13.60;;;3.20;;
52708;SDS011;38606;52.986;6.980;2023-04-15T10:46:21;7.57;;;2.67;;
52708;SDS011;38606;52.986;6.980;2023-04-15T10:48:50;7.95;;;2.60;;
52708;SDS011;38606;52.986;6.980;2023-04-15T10:51:36;10.68;;;2.80;;
52708;SDS011;38606;52.986;6.980;2023-04-15T10:54:37;7.13;;;2.33;;
52708;SDS011;38606;52.986;6.980;2023-04-15T11:02:23;4.75;;;2.05;;
52708;SDS011;38606;52.986;6.980;2023-04-15T11:05:22;11.05;;;2.70;;
52708;SDS011;38606;52.986;6.980;2023-04-15T11:08:03;5.97;;;2.35;;
52708;SDS011;38606;52.986;6.980;2023-04-15T11:15:35;6.60;;;2.30;;
52708;SDS011;38606;52.986;6.980;2023-04-15T11:18:11;5.40;;;2.28;;
52708;SDS011;38606;52.986;6.980;2023-04-15T11:20:41;10.73;;;2.95;;
52708;SDS011;38606;52.986;6.980;2023-04-15T11:23:09;8.60;;;2.42;;
52708;SDS011;38606;52.986;6.980;2023-04-15T11:25:35;7.00;;;2.42;;
52708;SDS011;38606;52.986;6.980;2023-04-15T11:28:02;7.05;;;2.33;;
52708;SDS011;38606;52.986;6.980;2023-04-15T11:30:30;6.47;;;2.63;;
52708;SDS011;38606;52.986;6.980;2023-04-15T11:32:58;6.53;;;2.17;;
52708;SDS011;38606;52.986;6.980;2023-04-15T11:35:34;7.90;;;2.97;;
52708;SDS011;38606;52.986;6.980;2023-04-15T11:38:04;7.40;;;3.03;;
52708;SDS011;38606;52.986;6.980;2023-04-15T11:40:32;5.50;;;2.70;;
52708;SDS011;38606;52.986;6.980;2023-04-15T11:43:18;6.20;;;2.78;;
52708;SDS011;38606;52.986;6.980;2023-04-15T11:45:50;10.65;;;2.60;;
52708;SDS011;38606;52.986;6.980;2023-04-15T11:48:17;19.83;;;3.30;;
52708;SDS011;38606;52.986;6.980;2023-04-15T11:50:44;10.88;;;2.58;;
52708;SDS011;38606;52.986;6.980;2023-04-15T11:53:11;6.40;;;2.30;;
52708;SDS011;38606;52.986;6.980;2023-04-15T11:55:45;10.20;;;2.22;;
52708;SDS011;38606;52.986;6.980;2023-04-15T11:58:18;10.52;;;2.70;;
52708;SDS011;38606;52.986;6.980;2023-04-15T12:00:50;9.52;;;2.70;;
52708;SDS011;38606;52.986;6.980;2023-04-15T12:03:29;10.50;;;2.80;;
52708;SDS011;38606;52.986;6.980;2023-04-15T12:16:27;15.60;;;3.00;;
52708;SDS011;38606;52.986;6.980;2023-04-15T12:18:54;8.25;;;2.40;;
52708;SDS011;38606;52.986;6.980;2023-04-15T12:21:21;7.82;;;2.38;;
52708;SDS011;38606;52.986;6.980;2023-04-15T12:26:15;12.00;;;2.70;;
52708;SDS011;38606;52.986;6.980;2023-04-15T12:28:43;8.15;;;2.30;;
52708;SDS011;38606;52.986;6.980;2023-04-15T12:31:09;8.60;;;2.45;;
52708;SDS011;38606;52.986;6.980;2023-04-15T12:33:35;5.60;;;2.05;;
52708;SDS011;38606;52.986;6.980;2023-04-15T12:36:02;6.72;;;2.20;;
52708;SDS011;38606;52.986;6.980;2023-04-15T12:38:28;9.10;;;2.13;;
52708;SDS011;38606;52.986;6.980;2023-04-15T12:40:55;10.45;;;1.88;;
52708;SDS011;38606;52.986;6.980;2023-04-15T12:43:22;8.40;;;2.28;;
52708;SDS011;38606;52.986;6.980;2023-04-15T12:45:47;7.30;;;2.03;;
52708;SDS011;38606;52.986;6.980;2023-04-15T12:48:13;9.27;;;2.28;;
52708;SDS011;38606;52.986;6.980;2023-04-15T12:50:39;8.13;;;1.95;;
52708;SDS011;38606;52.986;6.980;2023-04-15T12:53:05;8.57;;;2.05;;
52708;SDS011;38606;52.986;6.980;2023-04-15T12:55:31;7.65;;;1.65;;
52708;SDS011;38606;52.986;6.980;2023-04-15T12:57:56;5.85;;;1.70;;
52708;SDS011;38606;52.986;6.980;2023-04-15T13:00:22;6.53;;;1.90;;
52708;SDS011;38606;52.986;6.980;2023-04-15T13:02:48;7.60;;;1.90;;
52708;SDS011;38606;52.986;6.980;2023-04-15T13:05:14;9.02;;;1.70;;
52708;SDS011;38606;52.986;6.980;2023-04-15T13:07:40;9.35;;;2.17;;
52708;SDS011;38606;52.986;6.980;2023-04-15T13:10:06;8.63;;;1.98;;
52708;SDS011;38606;52.986;6.980;2023-04-15T13:12:32;8.77;;;2.08;;
52708;SDS011;38606;52.986;6.980;2023-04-15T13:15:04;12.55;;;1.88;;
52708;SDS011;38606;52.986;6.980;2023-04-15T13:17:30;8.80;;;2.03;;
52708;SDS011;38606;52.986;6.980;2023-04-15T13:19:56;10.80;;;2.53;;
52708;SDS011;38606;52.986;6.980;2023-04-15T13:22:22;11.23;;;2.28;;
52708;SDS011;38606;52.986;6.980;2023-04-15T13:24:47;9.30;;;1.77;;
52708;SDS011;38606;52.986;6.980;2023-04-15T13:27:13;8.10;;;2.00;;
52708;SDS011;38606;52.986;6.980;2023-04-15T13:29:39;16.33;;;2.13;;
52708;SDS011;38606;52.986;6.980;2023-04-15T13:32:05;8.68;;;2.33;;
52708;SDS011;38606;52.986;6.980;2023-04-15T13:34:31;7.25;;;1.80;;
52708;SDS011;38606;52.986;6.980;2023-04-15T13:36:57;8.98;;;2.10;;
52708;SDS011;38606;52.986;6.980;2023-04-15T13:39:23;8.50;;;2.10;;
52708;SDS011;38606;52.986;6.980;2023-04-15T13:41:48;12.23;;;2.20;;
52708;SDS011;38606;52.986;6.980;2023-04-15T13:44:14;6.70;;;1.88;;
52708;SDS011;38606;52.986;6.980;2023-04-15T13:46:40;6.38;;;1.67;;
52708;SDS011;38606;52.986;6.980;2023-04-15T13:49:15;10.18;;;1.90;;
52708;SDS011;38606;52.986;6.980;2023-04-15T13:51:44;7.10;;;2.15;;
52708;SDS011;38606;52.986;6.980;2023-04-15T13:54:10;6.60;;;1.98;;
52708;SDS011;38606;52.986;6.980;2023-04-15T13:56:35;10.20;;;2.25;;
52708;SDS011;38606;52.986;6.980;2023-04-15T13:59:01;9.20;;;1.95;;
52708;SDS011;38606;52.986;6.980;2023-04-15T14:01:27;10.38;;;2.25;;
52708;SDS011;38606;52.986;6.980;2023-04-15T14:03:53;10.65;;;2.20;;
52708;SDS011;38606;52.986;6.980;2023-04-15T14:06:19;6.53;;;2.08;;
52708;SDS011;38606;52.986;6.980;2023-04-15T14:08:45;9.25;;;2.42;;
52708;SDS011;38606;52.986;6.980;2023-04-15T14:11:11;8.77;;;2.20;;
52708;SDS011;38606;52.986;6.980;2023-04-15T14:13:37;8.93;;;2.50;;
52708;SDS011;38606;52.986;6.980;2023-04-15T14:16:03;12.13;;;2.40;;
52708;SDS011;38606;52.986;6.980;2023-04-15T14:18:29;8.88;;;2.70;;
52708;SDS011;38606;52.986;6.980;2023-04-15T14:20:55;9.90;;;2.08;;
52708;SDS011;38606;52.986;6.980;2023-04-15T14:23:21;16.17;;;3.42;;
52708;SDS011;38606;52.986;6.980;2023-04-15T14:25:47;19.23;;;3.05;;
52708;SDS011;38606;52.986;6.980;2023-04-15T14:28:14;10.30;;;2.72;;
52708;SDS011;38606;52.986;6.980;2023-04-15T14:30:40;13.15;;;2.85;;
52708;SDS011;38606;52.986;6.980;2023-04-15T14:33:05;10.95;;;2.88;;
52708;SDS011;38606;52.986;6.980;2023-04-15T14:35:31;15.10;;;3.17;;
52708;SDS011;38606;52.986;6.980;2023-04-15T14:37:57;11.73;;;3.22;;
52708;SDS011;38606;52.986;6.980;2023-04-15T14:40:23;8.73;;;2.83;;
52708;SDS011;38606;52.986;6.980;2023-04-15T14:42:48;14.95;;;3.25;;
52708;SDS011;38606;52.986;6.980;2023-04-15T14:45:14;14.50;;;2.90;;
52708;SDS011;38606;52.986;6.980;2023-04-15T14:47:40;12.32;;;3.10;;
52708;SDS011;38606;52.986;6.980;2023-04-15T14:50:06;11.02;;;3.55;;
52708;SDS011;38606;52.986;6.980;2023-04-15T14:52:32;14.93;;;3.72;;
52708;SDS011;38606;52.986;6.980;2023-04-15T14:55:12;18.02;;;4.00;;
52708;SDS011;38606;52.986;6.980;2023-04-15T14:57:38;17.83;;;4.18;;
52708;SDS011;38606;52.986;6.980;2023-04-15T15:00:06;16.55;;;3.25;;
52708;SDS011;38606;52.986;6.980;2023-04-15T15:02:34;15.88;;;3.50;;